sensor_id;sensor_type;location;lat;lon;timestamp;P1;durP1;ratioP1;P2;durP2;ratioP2
22606;SDS011;11470;20.968;105.834;2023-02-11T00:01:54;42.42;;;22.02;;
22606;SDS011;11470;20.968;105.834;2023-02-11T00:07:00;37.28;;;21.85;;
22606;SDS011;11470;20.968;105.834;2023-02-11T00:12:05;55.07;;;28.57;;
22606;SDS011;11470;20.968;105.834;2023-02-11T00:17:11;36.42;;;21.60;;
22606;SDS011;11470;20.968;105.834;2023-02-11T00:22:16;43.63;;;22.33;;
22606;SDS011;11470;20.968;105.834;2023-02-11T00:27:22;49.23;;;27.03;;
22606;SDS011;11470;20.968;105.834;2023-02-11T00:32:27;40.20;;;22.60;;
22606;SDS011;11470;20.968;105.834;2023-02-11T00:37:32;61.78;;;29.60;;
22606;SDS011;11470;20.968;105.834;2023-02-11T00:42:39;34.92;;;19.80;;
22606;SDS011;11470;20.968;105.834;2023-02-11T00:47:44;35.95;;;18.20;;
22606;SDS011;11470;20.968;105.834;2023-02-11T00:52:49;52.40;;;28.02;;
22606;SDS011;11470;20.968;105.834;2023-02-11T00:57:54;59.47;;;29.73;;
22606;SDS011;11470;20.968;105.834;2023-02-11T01:02:59;42.78;;;24.15;;
22606;SDS011;11470;20.968;105.834;2023-02-11T01:08:05;50.85;;;27.65;;
22606;SDS011;11470;20.968;105.834;2023-02-11T01:13:11;48.53;;;26.03;;
22606;SDS011;11470;20.968;105.834;2023-02-11T01:18:17;44.80;;;23.60;;
22606;SDS011;11470;20.968;105.834;2023-02-11T01:24:19;46.80;;;24.50;;
22606;SDS011;11470;20.968;105.834;2023-02-11T01:29:25;63.90;;;31.73;;
22606;SDS011;11470;20.968;105.834;2023-02-11T01:34:30;39.63;;;22.97;;
22606;SDS011;11470;20.968;105.834;2023-02-11T01:39:36;42.20;;;22.63;;
22606;SDS011;11470;20.968;105.834;2023-02-11T01:44:42;48.30;;;24.88;;
22606;SDS011;11470;20.968;105.834;2023-02-11T01:49:56;42.78;;;21.38;;
22606;SDS011;11470;20.968;105.834;2023-02-11T01:55:06;41.08;;;19.42;;
22606;SDS011;11470;20.968;105.834;2023-02-11T02:00:33;53.22;;;26.30;;
22606;SDS011;11470;20.968;105.834;2023-02-11T02:10:50;50.50;;;23.08;;
22606;SDS011;11470;20.968;105.834;2023-02-11T02:26:36;53.30;;;26.42;;
22606;SDS011;11470;20.968;105.834;2023-02-11T02:38:05;49.10;;;23.60;;
22606;SDS011;11470;20.968;105.834;2023-02-11T02:49:21;42.17;;;19.05;;
22606;SDS011;11470;20.968;105.834;2023-02-11T02:59:58;47.03;;;23.67;;
22606;SDS011;11470;20.968;105.834;2023-02-11T03:05:17;36.78;;;16.13;;
22606;SDS011;11470;20.968;105.834;2023-02-11T03:10:45;44.78;;;22.73;;
22606;SDS011;11470;20.968;105.834;2023-02-11T03:15:54;40.97;;;17.08;;
22606;SDS011;11470;20.968;105.834;2023-02-11T03:21:03;58.75;;;24.42;;
22606;SDS011;11470;20.968;105.834;2023-02-11T03:26:21;68.28;;;32.22;;
22606;SDS011;11470;20.968;105.834;2023-02-11T03:31:39;72.13;;;35.55;;
22606;SDS011;11470;20.968;105.834;2023-02-11T03:37:03;57.10;;;24.02;;
22606;SDS011;11470;20.968;105.834;2023-02-11T03:42:13;68.03;;;29.50;;
22606;SDS011;11470;20.968;105.834;2023-02-11T04:05:42;92.88;;;46.40;;
22606;SDS011;11470;20.968;105.834;2023-02-11T04:16:16;90.20;;;46.13;;
22606;SDS011;11470;20.968;105.834;2023-02-11T04:21:21;89.93;;;49.23;;
22606;SDS011;11470;20.968;105.834;2023-02-11T04:26:27;73.25;;;42.80;;
22606;SDS011;11470;20.968;105.834;2023-02-11T04:31:32;88.20;;;45.70;;
22606;SDS011;11470;20.968;105.834;2023-02-11T04:36:38;91.53;;;46.75;;
22606;SDS011;11470;20.968;105.834;2023-02-11T04:41:48;74.63;;;41.53;;
22606;SDS011;11470;20.968;105.834;2023-02-11T04:46:54;77.70;;;46.17;;
22606;SDS011;11470;20.968;105.834;2023-02-11T04:51:59;62.45;;;41.92;;
22606;SDS011;11470;20.968;105.834;2023-02-11T04:57:04;51.70;;;22.93;;
22606;SDS011;11470;20.968;105.834;2023-02-11T05:02:12;76.95;;;40.67;;
22606;SDS011;11470;20.968;105.834;2023-02-11T05:07:19;66.53;;;33.55;;
22606;SDS011;11470;20.968;105.834;2023-02-11T05:12:25;72.67;;;43.47;;
22606;SDS011;11470;20.968;105.834;2023-02-11T05:17:30;78.47;;;40.20;;
22606;SDS011;11470;20.968;105.834;2023-02-11T05:22:36;75.93;;;42.65;;
22606;SDS011;11470;20.968;105.834;2023-02-11T05:27:42;74.13;;;44.15;;
22606;SDS011;11470;20.968;105.834;2023-02-11T05:32:47;71.43;;;42.53;;
22606;SDS011;11470;20.968;105.834;2023-02-11T05:38:00;77.35;;;45.00;;
22606;SDS011;11470;20.968;105.834;2023-02-11T05:43:05;74.55;;;41.03;;
22606;SDS011;11470;20.968;105.834;2023-02-11T05:48:11;66.88;;;41.00;;
22606;SDS011;11470;20.968;105.834;2023-02-11T05:53:17;65.93;;;41.22;;
22606;SDS011;11470;20.968;105.834;2023-02-11T05:58:45;70.20;;;43.28;;
22606;SDS011;11470;20.968;105.834;2023-02-11T06:03:52;63.95;;;35.47;;
22606;SDS011;11470;20.968;105.834;2023-02-11T06:09:06;60.55;;;27.67;;
22606;SDS011;11470;20.968;105.834;2023-02-11T06:14:13;69.85;;;42.92;;
22606;SDS011;11470;20.968;105.834;2023-02-11T06:19:27;64.50;;;35.40;;
22606;SDS011;11470;20.968;105.834;2023-02-11T06:24:35;54.72;;;26.92;;
22606;SDS011;11470;20.968;105.834;2023-02-11T06:30:05;50.47;;;31.73;;
22606;SDS011;11470;20.968;105.834;2023-02-11T06:35:56;64.50;;;38.28;;
22606;SDS011;11470;20.968;105.834;2023-02-11T06:41:01;57.27;;;28.00;;
22606;SDS011;11470;20.968;105.834;2023-02-11T06:46:15;71.47;;;36.60;;
22606;SDS011;11470;20.968;105.834;2023-02-11T06:51:20;61.85;;;35.00;;
22606;SDS011;11470;20.968;105.834;2023-02-11T06:56:26;54.75;;;33.67;;
22606;SDS011;11470;20.968;105.834;2023-02-11T07:01:33;48.53;;;27.27;;
22606;SDS011;11470;20.968;105.834;2023-02-11T07:06:39;59.13;;;35.63;;
22606;SDS011;11470;20.968;105.834;2023-02-11T07:11:46;43.15;;;21.17;;
22606;SDS011;11470;20.968;105.834;2023-02-11T07:16:52;50.95;;;26.00;;
22606;SDS011;11470;20.968;105.834;2023-02-11T07:21:57;60.80;;;33.63;;
22606;SDS011;11470;20.968;105.834;2023-02-11T07:33:04;46.35;;;28.77;;
22606;SDS011;11470;20.968;105.834;2023-02-11T07:38:10;47.72;;;26.90;;
22606;SDS011;11470;20.968;105.834;2023-02-11T07:43:20;55.63;;;28.27;;
22606;SDS011;11470;20.968;105.834;2023-02-11T07:48:27;47.33;;;22.52;;
22606;SDS011;11470;20.968;105.834;2023-02-11T07:53:33;55.58;;;33.15;;
22606;SDS011;11470;20.968;105.834;2023-02-11T07:58:58;55.60;;;31.67;;
22606;SDS011;11470;20.968;105.834;2023-02-11T08:04:06;63.03;;;35.58;;
22606;SDS011;11470;20.968;105.834;2023-02-11T08:09:14;61.83;;;33.92;;
22606;SDS011;11470;20.968;105.834;2023-02-11T08:14:20;59.35;;;34.70;;
22606;SDS011;11470;20.968;105.834;2023-02-11T08:19:28;58.90;;;33.92;;
22606;SDS011;11470;20.968;105.834;2023-02-11T08:24:36;58.00;;;35.03;;
22606;SDS011;11470;20.968;105.834;2023-02-11T08:29:43;58.17;;;31.15;;
22606;SDS011;11470;20.968;105.834;2023-02-11T08:34:51;61.40;;;30.55;;
22606;SDS011;11470;20.968;105.834;2023-02-11T08:40:04;53.75;;;24.38;;
22606;SDS011;11470;20.968;105.834;2023-02-11T08:45:10;43.67;;;18.85;;
22606;SDS011;11470;20.968;105.834;2023-02-11T08:50:16;40.40;;;26.42;;
22606;SDS011;11470;20.968;105.834;2023-02-11T08:55:26;57.53;;;30.48;;
22606;SDS011;11470;20.968;105.834;2023-02-11T09:00:32;49.22;;;30.65;;
22606;SDS011;11470;20.968;105.834;2023-02-11T09:05:44;35.55;;;24.83;;
22606;SDS011;11470;20.968;105.834;2023-02-11T09:10:55;42.97;;;24.20;;
22606;SDS011;11470;20.968;105.834;2023-02-11T09:16:02;52.45;;;28.20;;
22606;SDS011;11470;20.968;105.834;2023-02-11T09:21:10;50.88;;;28.73;;
22606;SDS011;11470;20.968;105.834;2023-02-11T09:26:18;52.13;;;28.83;;
22606;SDS011;11470;20.968;105.834;2023-02-11T09:31:37;37.08;;;16.42;;
22606;SDS011;11470;20.968;105.834;2023-02-11T09:36:43;42.20;;;23.77;;
22606;SDS011;11470;20.968;105.834;2023-02-11T09:47:23;50.20;;;30.65;;
22606;SDS011;11470;20.968;105.834;2023-02-11T09:58:14;60.95;;;35.35;;
22606;SDS011;11470;20.968;105.834;2023-02-11T10:25:05;65.07;;;31.48;;
22606;SDS011;11470;20.968;105.834;2023-02-11T10:30:42;65.95;;;34.45;;
22606;SDS011;11470;20.968;105.834;2023-02-11T10:35:51;68.57;;;36.65;;
22606;SDS011;11470;20.968;105.834;2023-02-11T10:40:57;66.45;;;34.30;;
22606;SDS011;11470;20.968;105.834;2023-02-11T10:46:04;49.10;;;21.45;;
22606;SDS011;11470;20.968;105.834;2023-02-11T10:51:21;69.25;;;35.95;;
22606;SDS011;11470;20.968;105.834;2023-02-11T10:56:44;65.97;;;32.30;;
22606;SDS011;11470;20.968;105.834;2023-02-11T11:07:39;66.90;;;33.58;;
22606;SDS011;11470;20.968;105.834;2023-02-11T11:18:47;52.22;;;24.05;;
22606;SDS011;11470;20.968;105.834;2023-02-11T11:23:59;72.47;;;35.80;;
22606;SDS011;11470;20.968;105.834;2023-02-11T11:29:28;69.97;;;31.67;;
22606;SDS011;11470;20.968;105.834;2023-02-11T11:35:00;69.60;;;35.33;;
22606;SDS011;11470;20.968;105.834;2023-02-11T11:45:24;57.10;;;30.15;;
22606;SDS011;11470;20.968;105.834;2023-02-11T11:55:59;44.20;;;21.42;;
22606;SDS011;11470;20.968;105.834;2023-02-11T12:07:29;37.70;;;16.38;;
22606;SDS011;11470;20.968;105.834;2023-02-11T12:13:07;64.22;;;33.85;;
22606;SDS011;11470;20.968;105.834;2023-02-11T12:23:46;57.72;;;34.35;;
22606;SDS011;11470;20.968;105.834;2023-02-11T12:34:51;58.28;;;28.38;;
22606;SDS011;11470;20.968;105.834;2023-02-11T12:56:31;59.08;;;34.22;;
22606;SDS011;11470;20.968;105.834;2023-02-11T13:01:44;61.50;;;35.42;;
22606;SDS011;11470;20.968;105.834;2023-02-11T13:06:56;55.55;;;30.80;;
22606;SDS011;11470;20.968;105.834;2023-02-11T13:12:08;49.25;;;28.75;;
22606;SDS011;11470;20.968;105.834;2023-02-11T13:17:38;57.28;;;30.75;;
22606;SDS011;11470;20.968;105.834;2023-02-11T13:23:08;41.53;;;19.88;;
22606;SDS011;11470;20.968;105.834;2023-02-11T14:12:37;70.45;;;33.60;;
22606;SDS011;11470;20.968;105.834;2023-02-11T14:17:45;65.45;;;29.70;;
22606;SDS011;11470;20.968;105.834;2023-02-11T14:23:05;53.40;;;21.38;;
22606;SDS011;11470;20.968;105.834;2023-02-11T14:48:35;57.53;;;30.85;;
22606;SDS011;11470;20.968;105.834;2023-02-11T14:54:20;46.13;;;20.17;;
22606;SDS011;11470;20.968;105.834;2023-02-11T15:06:23;47.63;;;20.88;;
22606;SDS011;11470;20.968;105.834;2023-02-11T15:11:41;54.78;;;22.90;;
22606;SDS011;11470;20.968;105.834;2023-02-11T15:17:31;62.50;;;30.13;;
22606;SDS011;11470;20.968;105.834;2023-02-11T15:22:56;49.65;;;23.08;;
22606;SDS011;11470;20.968;105.834;2023-02-11T15:34:05;71.78;;;37.63;;
22606;SDS011;11470;20.968;105.834;2023-02-11T15:39:32;72.45;;;36.78;;
22606;SDS011;11470;20.968;105.834;2023-02-11T15:50:29;73.63;;;37.15;;
22606;SDS011;11470;20.968;105.834;2023-02-11T15:55:43;75.07;;;36.70;;
22606;SDS011;11470;20.968;105.834;2023-02-11T16:00:51;72.40;;;34.53;;
22606;SDS011;11470;20.968;105.834;2023-02-11T16:06:42;73.50;;;39.08;;
22606;SDS011;11470;20.968;105.834;2023-02-11T16:12:00;65.93;;;36.25;;
22606;SDS011;11470;20.968;105.834;2023-02-11T16:31:47;64.77;;;34.03;;
22606;SDS011;11470;20.968;105.834;2023-02-11T16:37:31;63.42;;;34.92;;
22606;SDS011;11470;20.968;105.834;2023-02-11T17:25:58;53.60;;;28.13;;
22606;SDS011;11470;20.968;105.834;2023-02-11T17:31:06;53.80;;;29.73;;
22606;SDS011;11470;20.968;105.834;2023-02-11T17:53:59;46.28;;;24.58;;
22606;SDS011;11470;20.968;105.834;2023-02-11T17:59:08;50.70;;;26.88;;
22606;SDS011;11470;20.968;105.834;2023-02-11T18:04:16;44.22;;;23.25;;
22606;SDS011;11470;20.968;105.834;2023-02-11T18:09:34;50.58;;;27.13;;
22606;SDS011;11470;20.968;105.834;2023-02-11T18:14:43;47.72;;;28.15;;
22606;SDS011;11470;20.968;105.834;2023-02-11T18:19:49;51.47;;;28.42;;
22606;SDS011;11470;20.968;105.834;2023-02-11T18:24:59;45.03;;;25.33;;
22606;SDS011;11470;20.968;105.834;2023-02-11T18:30:05;50.08;;;26.08;;
22606;SDS011;11470;20.968;105.834;2023-02-11T18:35:13;42.63;;;22.10;;
22606;SDS011;11470;20.968;105.834;2023-02-11T18:40:20;39.35;;;24.17;;
22606;SDS011;11470;20.968;105.834;2023-02-11T18:45:26;45.45;;;26.63;;
22606;SDS011;11470;20.968;105.834;2023-02-11T18:50:33;44.67;;;25.95;;
22606;SDS011;11470;20.968;105.834;2023-02-11T18:55:39;51.65;;;25.20;;
22606;SDS011;11470;20.968;105.834;2023-02-11T19:00:48;49.05;;;25.23;;
22606;SDS011;11470;20.968;105.834;2023-02-11T19:05:55;45.47;;;25.48;;
22606;SDS011;11470;20.968;105.834;2023-02-11T19:11:02;43.22;;;25.05;;
22606;SDS011;11470;20.968;105.834;2023-02-11T19:16:09;46.97;;;28.02;;
22606;SDS011;11470;20.968;105.834;2023-02-11T19:21:17;46.60;;;26.33;;
22606;SDS011;11470;20.968;105.834;2023-02-11T19:26:27;47.70;;;26.80;;
22606;SDS011;11470;20.968;105.834;2023-02-11T19:31:34;53.00;;;29.77;;
22606;SDS011;11470;20.968;105.834;2023-02-11T19:36:40;47.95;;;25.73;;
22606;SDS011;11470;20.968;105.834;2023-02-11T19:41:47;51.90;;;28.10;;
22606;SDS011;11470;20.968;105.834;2023-02-11T19:51:59;43.90;;;28.08;;
22606;SDS011;11470;20.968;105.834;2023-02-11T19:57:05;61.45;;;32.90;;
22606;SDS011;11470;20.968;105.834;2023-02-11T20:02:12;51.58;;;29.25;;
22606;SDS011;11470;20.968;105.834;2023-02-11T20:07:18;56.85;;;32.00;;
22606;SDS011;11470;20.968;105.834;2023-02-11T20:12:25;57.85;;;30.55;;
22606;SDS011;11470;20.968;105.834;2023-02-11T20:17:31;55.33;;;32.63;;
22606;SDS011;11470;20.968;105.834;2023-02-11T20:22:37;55.55;;;33.00;;
22606;SDS011;11470;20.968;105.834;2023-02-11T20:32:50;49.03;;;28.73;;
22606;SDS011;11470;20.968;105.834;2023-02-11T20:37:56;60.30;;;34.13;;
22606;SDS011;11470;20.968;105.834;2023-02-11T20:43:03;51.15;;;31.05;;
22606;SDS011;11470;20.968;105.834;2023-02-11T20:48:09;53.10;;;32.10;;
22606;SDS011;11470;20.968;105.834;2023-02-11T20:53:15;49.15;;;30.20;;
22606;SDS011;11470;20.968;105.834;2023-02-11T20:58:36;72.10;;;36.78;;
22606;SDS011;11470;20.968;105.834;2023-02-11T21:03:43;58.58;;;31.83;;
22606;SDS011;11470;20.968;105.834;2023-02-11T21:08:53;56.63;;;32.30;;
22606;SDS011;11470;20.968;105.834;2023-02-11T21:14:00;69.07;;;37.90;;
22606;SDS011;11470;20.968;105.834;2023-02-11T21:19:07;48.53;;;30.08;;
22606;SDS011;11470;20.968;105.834;2023-02-11T21:24:13;43.42;;;28.60;;
22606;SDS011;11470;20.968;105.834;2023-02-11T21:29:19;54.60;;;31.20;;
22606;SDS011;11470;20.968;105.834;2023-02-11T21:34:26;57.13;;;32.75;;
22606;SDS011;11470;20.968;105.834;2023-02-11T21:39:32;56.70;;;31.35;;
22606;SDS011;11470;20.968;105.834;2023-02-11T21:44:39;59.13;;;33.17;;
22606;SDS011;11470;20.968;105.834;2023-02-11T21:49:45;43.72;;;27.73;;
22606;SDS011;11470;20.968;105.834;2023-02-11T21:59:57;54.60;;;30.98;;
22606;SDS011;11470;20.968;105.834;2023-02-11T22:05:06;46.33;;;29.90;;
22606;SDS011;11470;20.968;105.834;2023-02-11T22:10:13;46.08;;;28.10;;
22606;SDS011;11470;20.968;105.834;2023-02-11T22:15:19;59.10;;;34.55;;
22606;SDS011;11470;20.968;105.834;2023-02-11T22:20:26;47.38;;;30.20;;
22606;SDS011;11470;20.968;105.834;2023-02-11T22:25:32;58.58;;;33.75;;
22606;SDS011;11470;20.968;105.834;2023-02-11T22:30:40;56.78;;;32.20;;
22606;SDS011;11470;20.968;105.834;2023-02-11T22:35:46;62.13;;;36.30;;
22606;SDS011;11470;20.968;105.834;2023-02-11T22:40:52;72.88;;;40.72;;
22606;SDS011;11470;20.968;105.834;2023-02-11T22:46:01;61.70;;;35.47;;
22606;SDS011;11470;20.968;105.834;2023-02-11T22:51:15;58.63;;;35.70;;
22606;SDS011;11470;20.968;105.834;2023-02-11T22:56:27;66.85;;;36.75;;
22606;SDS011;11470;20.968;105.834;2023-02-11T23:01:35;67.78;;;39.42;;
22606;SDS011;11470;20.968;105.834;2023-02-11T23:06:41;62.00;;;34.53;;
22606;SDS011;11470;20.968;105.834;2023-02-11T23:11:50;67.45;;;36.50;;
22606;SDS011;11470;20.968;105.834;2023-02-11T23:16:58;57.97;;;34.72;;
22606;SDS011;11470;20.968;105.834;2023-02-11T23:22:04;56.28;;;35.25;;
22606;SDS011;11470;20.968;105.834;2023-02-11T23:27:10;56.90;;;34.30;;
22606;SDS011;11470;20.968;105.834;2023-02-11T23:32:16;63.22;;;36.25;;
22606;SDS011;11470;20.968;105.834;2023-02-11T23:37:23;64.57;;;37.30;;
22606;SDS011;11470;20.968;105.834;2023-02-11T23:42:29;56.30;;;34.80;;
22606;SDS011;11470;20.968;105.834;2023-02-11T23:47:35;73.63;;;42.95;;
22606;SDS011;11470;20.968;105.834;2023-02-11T23:52:43;68.70;;;38.13;;
22606;SDS011;11470;20.968;105.834;2023-02-11T23:57:49;50.13;;;30.27;;
